Holeby, Denmark
Current Conditions -  °F | °C
As of 2:20 PM on Tuesday 21 Oct 2014 (Local Time) from EDHK Reporting Station
Light Rain Light Rain  
Wind Chill: 54°   Ceiling: 1600
Heat Index: 54°   Visibility: 4mi
Dew Point: 52°   Wind: 9mph
Humidity: 94%   Direction: 190°S
Pressure: 29.47"   Gusts: NA
Location:  54.71°N, 11.46°E
Report Text: EDHK 211220Z 19008KT 170V230 7000 -RA SCT009 BKN016 OVC04012/11 Q0998
Loading
Personal Weather Stations






























Interactive Weather Map
Tropical Storm Tracking
New forecast layout! Learn more

10-Day Weather Forecast

Advertisements
Track Severe Weather on mobile